Smit Nicobar — ORRT — position and weather

sailwx.info

Track history (hours):
 
Tides and Currents Weather Stations Pressure Air Temp Water Temp Dewpoint Dewpoint Depression Visibility Wind Speed Wind Dir Waves Ship Positions

Smit Nicobar

Last reported at 2017-Nov-11 12:05 UTC. Time now 2017-Nov-20 17:22 UTC.
Position S 00°14' W 051°19'.
Warning: this ship's position is 9 days out of date.

Length 71 m; draft 5.5 m.

Type: Towing. MMSI: 205684000.

Date/timePositionNaut miles runAvg speedWind from/ knotsBaromVisibWave heightAir tempDewpointWater temp
2017-Nov-11 12:05S 00°14' W 051°19'1 7.7
2017-Nov-11 12:00S 00°14' W 051°18'4 7.5
2017-Nov-11 11:30S 00°11' W 051°16'4 7.5
2017-Nov-11 10:59S 00°09' W 051°12'4 7.6
2017-Nov-11 10:30S 00°07' W 051°09'3 6.8
2017-Nov-11 10:00S 00°04' W 051°07'3 5.1
2017-Nov-11 09:30S 00°04' W 051°09'1 1.6
2017-Nov-11 09:00S 00°04' W 051°10'0 0.0
2017-Nov-11 08:31S 00°04' W 051°10'0 0.0
2017-Nov-11 08:00S 00°04' W 051°10'0 0.0
2017-Nov-11 07:30S 00°04' W 051°10'0 0.0
2017-Nov-11 07:00S 00°04' W 051°10'0 0.0
2017-Nov-11 06:31S 00°04' W 051°10'0 0.0
2017-Nov-11 06:01S 00°04' W 051°10'0 0.0
2017-Nov-11 05:30S 00°04' W 051°10'0 0.0
2017-Nov-11 05:01S 00°04' W 051°10'0 0.0
2017-Nov-11 04:30S 00°04' W 051°10'0 0.0
2017-Nov-11 04:00S 00°04' W 051°10'0 0.0
2017-Nov-11 03:31S 00°04' W 051°10'0 0.0
2017-Nov-11 03:00S 00°04' W 051°10'0 0.0
2017-Nov-11 02:31S 00°04' W 051°10'0 0.0
2017-Nov-11 02:00S 00°04' W 051°10'0 0.0
2017-Nov-11 01:31S 00°04' W 051°10'0 0.0
2017-Nov-11 01:00S 00°04' W 051°10'0 0.0
2017-Nov-11 00:30S 00°04' W 051°10'0 0.0
2017-Nov-11 00:00S 00°04' W 051°10'0 0.0
2017-Nov-10 23:30S 00°04' W 051°10'0 0.0
2017-Nov-10 23:00S 00°04' W 051°10'0 0.0
2017-Nov-10 22:30S 00°04' W 051°10'0 0.1
2017-Nov-10 22:00S 00°04' W 051°10'0 0.0
2017-Nov-10 21:30S 00°04' W 051°10'0 0.1
2017-Nov-10 21:00S 00°04' W 051°10'0 0.0
2017-Nov-10 20:30S 00°04' W 051°10'0 0.1
2017-Nov-10 19:59S 00°04' W 051°10'0 0.0
2017-Nov-10 19:30S 00°04' W 051°10'0 0.0
2017-Nov-10 19:00S 00°04' W 051°10'0 0.0
2017-Nov-10 18:30S 00°04' W 051°10'0 0.0
2017-Nov-10 18:00S 00°04' W 051°10'0 0.0
2017-Nov-10 17:31S 00°04' W 051°10'0 0.0
2017-Nov-10 17:01S 00°04' W 051°10'0 0.0
2017-Nov-10 16:31S 00°04' W 051°10'0 0.0
2017-Nov-10 16:00S 00°04' W 051°10'0 0.0
2017-Nov-10 15:30S 00°04' W 051°10'0 0.0
2017-Nov-10 15:00S 00°04' W 051°10'0 0.0
2017-Nov-10 14:31S 00°04' W 051°10'0 0.0
2017-Nov-10 14:01S 00°04' W 051°10'0 0.0
2017-Nov-10 13:30S 00°04' W 051°10'0 0.0
2017-Nov-10 13:01S 00°04' W 051°10'0 0.0
2017-Nov-10 12:30S 00°04' W 051°10'0 0.0
2017-Nov-10 12:00S 00°04' W 051°10'0 0.0
2017-Nov-10 11:30S 00°04' W 051°10'0 0.0
2017-Nov-10 11:00S 00°04' W 051°10'0 0.0
2017-Nov-10 10:30S 00°04' W 051°10'0 0.0
2017-Nov-10 10:00S 00°04' W 051°10'0 0.0
2017-Nov-10 09:30S 00°04' W 051°10'0 0.0
2017-Nov-10 09:00S 00°04' W 051°10'0 0.0
2017-Nov-10 08:30S 00°04' W 051°10'0 0.0
2017-Nov-10 08:00S 00°04' W 051°10'0 0.0
2017-Nov-10 07:30S 00°04' W 051°10'0 0.0
2017-Nov-10 07:00S 00°04' W 051°10'0 0.0
2017-Nov-10 06:30S 00°04' W 051°10'0 0.0
2017-Nov-10 06:00S 00°04' W 051°10'0 0.0
2017-Nov-10 05:31S 00°04' W 051°10'0 0.0
2017-Nov-10 05:00S 00°04' W 051°10'0 0.0
2017-Nov-10 04:30S 00°04' W 051°10'0 0.0
2017-Nov-10 04:00S 00°04' W 051°10'0 0.0
2017-Nov-10 03:30S 00°04' W 051°10'0 0.0
2017-Nov-10 03:00S 00°04' W 051°10'0 0.0
2017-Nov-10 02:30S 00°04' W 051°10'0 0.0
2017-Nov-10 02:00S 00°04' W 051°10'0 0.0
2017-Nov-10 01:30S 00°04' W 051°10'0 0.0
2017-Nov-10 01:00S 00°04' W 051°10'0 0.0
2017-Nov-10 00:30S 00°04' W 051°10'0 0.0
2017-Nov-10 00:00S 00°04' W 051°10'0 0.0
2017-Nov-09 23:30S 00°04' W 051°10'0 0.0
2017-Nov-09 23:00S 00°04' W 051°10'0 0.0
2017-Nov-09 22:30S 00°04' W 051°10'0 0.0
2017-Nov-09 22:00S 00°04' W 051°10'0 0.0
2017-Nov-09 21:30S 00°04' W 051°10'0 0.0
2017-Nov-09 21:00S 00°04' W 051°10'0 0.0
2017-Nov-09 20:30S 00°04' W 051°10'0 0.0
2017-Nov-09 20:00S 00°04' W 051°10'0 0.0
2017-Nov-09 19:30S 00°04' W 051°10'0 0.0
2017-Nov-09 19:00S 00°04' W 051°10'0 0.0
2017-Nov-09 18:30S 00°04' W 051°10'0 0.0
2017-Nov-09 18:00S 00°04' W 051°10'0 0.0
2017-Nov-09 17:30S 00°04' W 051°10'0 0.0
2017-Nov-09 17:00S 00°04' W 051°10'0 0.0
2017-Nov-09 16:30S 00°04' W 051°10'0 0.0
2017-Nov-09 16:00S 00°04' W 051°10'0 0.0
2017-Nov-08 18:09S 00°04' W 051°10'0 0.0
2017-Nov-08 18:00S 00°04' W 051°10'0 0.0
2017-Nov-08 17:30S 00°04' W 051°10'0 0.0
2017-Nov-08 17:00S 00°04' W 051°10'0 0.0
2017-Nov-08 16:30S 00°04' W 051°10'0 0.0
2017-Nov-08 16:00S 00°04' W 051°10'0 0.0
2017-Nov-08 15:30S 00°04' W 051°10'0 0.0
2017-Nov-08 15:00S 00°04' W 051°10'0 0.0
2017-Nov-08 14:30S 00°04' W 051°10'0 0.0
2017-Nov-08 14:00S 00°04' W 051°10'0 0.0
2017-Nov-08 13:30S 00°04' W 051°10'0 0.0
2017-Nov-08 13:00S 00°04' W 051°10'0 0.0
2017-Nov-08 12:30S 00°04' W 051°10'0 0.0
2017-Nov-08 12:00S 00°04' W 051°10'0 0.0
2017-Nov-08 11:30S 00°04' W 051°10'0 0.0
2017-Nov-08 11:00S 00°04' W 051°10'0 0.0
2017-Nov-08 10:30S 00°04' W 051°10'0 0.0
2017-Nov-08 10:00S 00°04' W 051°10'0 0.0
2017-Nov-08 09:30S 00°04' W 051°10'0 0.0
2017-Nov-08 09:00S 00°04' W 051°10'0 0.0
2017-Nov-08 08:30S 00°04' W 051°10'0 0.0
2017-Nov-08 08:00S 00°04' W 051°10'0 0.0
2017-Nov-08 07:30S 00°04' W 051°10'0 0.0
2017-Nov-08 07:00S 00°04' W 051°10'0 0.0
2017-Nov-08 06:30S 00°04' W 051°10'0 0.0
2017-Nov-08 06:01S 00°04' W 051°10'0 0.0
2017-Nov-08 05:30S 00°04' W 051°10'0 0.0
2017-Nov-08 05:00S 00°04' W 051°10'0 0.0
2017-Nov-08 04:30S 00°04' W 051°10'0 0.0
2017-Nov-08 04:00S 00°04' W 051°10'0 0.0
2017-Nov-08 03:30S 00°04' W 051°10'0 0.0
2017-Nov-08 03:00S 00°04' W 051°10'0 0.0
2017-Nov-08 02:30S 00°04' W 051°10'0 0.0
2017-Nov-08 02:00S 00°04' W 051°10'0 0.0
2017-Nov-08 01:30S 00°04' W 051°10'0 0.0
2017-Nov-08 01:00S 00°04' W 051°10'0 0.0
2017-Nov-08 00:30S 00°04' W 051°10'0 0.0
2017-Nov-08 00:00S 00°04' W 051°10'0 0.0
2017-Nov-07 23:30S 00°04' W 051°10'0 0.0
2017-Nov-07 23:00S 00°04' W 051°10'0 0.0
2017-Nov-07 22:27S 00°04' W 051°10'0 0.0
2017-Nov-07 22:00S 00°04' W 051°10'0 0.0
2017-Nov-07 21:30S 00°04' W 051°10'0 0.0
2017-Nov-07 21:00S 00°04' W 051°10'0 0.0
2017-Nov-07 20:30S 00°04' W 051°10'0 0.0
2017-Nov-07 20:00S 00°04' W 051°10'0 0.0
2017-Nov-07 19:30S 00°04' W 051°10'0 0.0
2017-Nov-07 19:00S 00°04' W 051°10'0 0.0
2017-Nov-07 18:30S 00°04' W 051°10'0 0.0
2017-Nov-07 18:00S 00°04' W 051°10'0 0.0
2017-Nov-07 17:30S 00°04' W 051°10'0 0.0
2017-Nov-07 17:00S 00°04' W 051°10'0 0.0
2017-Nov-07 16:30S 00°04' W 051°10'0 0.0
2017-Nov-07 16:00S 00°04' W 051°10'0 0.0
2017-Nov-07 15:30S 00°04' W 051°10'0 0.0
2017-Nov-07 15:00S 00°04' W 051°10'0 0.0
2017-Nov-07 14:30S 00°04' W 051°10'0 0.0
2017-Nov-07 14:00S 00°04' W 051°10'0 0.0
2017-Nov-07 13:30S 00°04' W 051°10'0 0.0
2017-Nov-07 13:00S 00°04' W 051°10'0 0.0
2017-Nov-07 12:30S 00°04' W 051°10'0 0.0
2017-Nov-07 12:00S 00°04' W 051°10'0 0.0
2017-Nov-07 11:30S 00°04' W 051°10'0 0.0
2017-Nov-07 11:00S 00°04' W 051°10'0 0.0
2017-Nov-07 10:30S 00°04' W 051°10'0 0.0
2017-Nov-07 10:00S 00°04' W 051°10'0 0.0
2017-Nov-07 08:20S 00°04' W 051°10'0 0.0
2017-Nov-07 08:00S 00°04' W 051°10'0 0.0
2017-Nov-07 07:30S 00°04' W 051°10'0 0.0
2017-Nov-07 07:00S 00°04' W 051°10'0 0.0
2017-Nov-07 06:31S 00°04' W 051°10'0 0.0
2017-Nov-07 06:00S 00°04' W 051°10'0 0.0
2017-Nov-07 05:30S 00°04' W 051°10'0 0.0
2017-Nov-07 05:00S 00°04' W 051°10'0 0.0
2017-Nov-07 04:30S 00°04' W 051°10'0 0.0
2017-Nov-07 04:00S 00°04' W 051°10'0 0.0
2017-Nov-07 03:30S 00°04' W 051°10'0 0.0
2017-Nov-07 03:00S 00°04' W 051°10'0 0.0
2017-Nov-07 02:30S 00°04' W 051°10'0 0.0
2017-Nov-07 02:00S 00°04' W 051°10'0 0.0
2017-Nov-07 01:30S 00°04' W 051°10'0 0.0
2017-Nov-07 01:00S 00°04' W 051°10'0 0.0
2017-Nov-07 00:30S 00°04' W 051°10'0 0.0
2017-Nov-07 00:00S 00°04' W 051°10'0 0.0
2017-Nov-06 23:30S 00°04' W 051°10'0 0.0
2017-Nov-06 23:00S 00°04' W 051°10'0 0.0
2017-Nov-06 22:30S 00°04' W 051°10'0 0.0
2017-Nov-06 22:00S 00°04' W 051°10'0 0.0
2017-Nov-06 21:30S 00°04' W 051°10'0 0.0
2017-Nov-06 21:00S 00°04' W 051°10'0 0.0
2017-Nov-06 20:30S 00°04' W 051°10'  
Track history (hours):
 
Tides and Currents Weather Stations Pressure Air Temp Water Temp Dewpoint Dewpoint Depression Visibility Wind Speed Wind Dir Waves Ship Positions

Smit Nicobar

Last reported at 2017-Nov-11 12:05 UTC. Time now 2017-Nov-20 17:22 UTC.
Position S 00°14' W 051°19'.
Warning: this ship's position is 9 days out of date.

Length 71 m; draft 5.5 m.

Type: Towing. MMSI: 205684000.

Date/timePositionNaut miles runAvg speedWind from/ knotsBaromVisibWave heightAir tempDewpointWater temp
2017-Nov-11 12:05S 00°14' W 051°19'1 7.7
2017-Nov-11 12:00S 00°14' W 051°18'4 7.5
2017-Nov-11 11:30S 00°11' W 051°16'4 7.5
2017-Nov-11 10:59S 00°09' W 051°12'4 7.6
2017-Nov-11 10:30S 00°07' W 051°09'3 6.8
2017-Nov-11 10:00S 00°04' W 051°07'3 5.1
2017-Nov-11 09:30S 00°04' W 051°09'1 1.6
2017-Nov-11 09:00S 00°04' W 051°10'0 0.0
2017-Nov-11 08:31S 00°04' W 051°10'0 0.0
2017-Nov-11 08:00S 00°04' W 051°10'0 0.0
2017-Nov-11 07:30S 00°04' W 051°10'0 0.0
2017-Nov-11 07:00S 00°04' W 051°10'0 0.0
2017-Nov-11 06:31S 00°04' W 051°10'0 0.0
2017-Nov-11 06:01S 00°04' W 051°10'0 0.0
2017-Nov-11 05:30S 00°04' W 051°10'0 0.0
2017-Nov-11 05:01S 00°04' W 051°10'0 0.0
2017-Nov-11 04:30S 00°04' W 051°10'0 0.0
2017-Nov-11 04:00S 00°04' W 051°10'0 0.0
2017-Nov-11 03:31S 00°04' W 051°10'0 0.0
2017-Nov-11 03:00S 00°04' W 051°10'0 0.0
2017-Nov-11 02:31S 00°04' W 051°10'0 0.0
2017-Nov-11 02:00S 00°04' W 051°10'0 0.0
2017-Nov-11 01:31S 00°04' W 051°10'0 0.0
2017-Nov-11 01:00S 00°04' W 051°10'0 0.0
2017-Nov-11 00:30S 00°04' W 051°10'0 0.0
2017-Nov-11 00:00S 00°04' W 051°10'0 0.0
2017-Nov-10 23:30S 00°04' W 051°10'0 0.0
2017-Nov-10 23:00S 00°04' W 051°10'0 0.0
2017-Nov-10 22:30S 00°04' W 051°10'0 0.1
2017-Nov-10 22:00S 00°04' W 051°10'0 0.0
2017-Nov-10 21:30S 00°04' W 051°10'0 0.1
2017-Nov-10 21:00S 00°04' W 051°10'0 0.0
2017-Nov-10 20:30S 00°04' W 051°10'0 0.1
2017-Nov-10 19:59S 00°04' W 051°10'0 0.0
2017-Nov-10 19:30S 00°04' W 051°10'0 0.0
2017-Nov-10 19:00S 00°04' W 051°10'0 0.0
2017-Nov-10 18:30S 00°04' W 051°10'0 0.0
2017-Nov-10 18:00S 00°04' W 051°10'0 0.0
2017-Nov-10 17:31S 00°04' W 051°10'0 0.0
2017-Nov-10 17:01S 00°04' W 051°10'0 0.0
2017-Nov-10 16:31S 00°04' W 051°10'0 0.0
2017-Nov-10 16:00S 00°04' W 051°10'0 0.0
2017-Nov-10 15:30S 00°04' W 051°10'0 0.0
2017-Nov-10 15:00S 00°04' W 051°10'0 0.0
2017-Nov-10 14:31S 00°04' W 051°10'0 0.0
2017-Nov-10 14:01S 00°04' W 051°10'0 0.0
2017-Nov-10 13:30S 00°04' W 051°10'0 0.0
2017-Nov-10 13:01S 00°04' W 051°10'0 0.0
2017-Nov-10 12:30S 00°04' W 051°10'0 0.0
2017-Nov-10 12:00S 00°04' W 051°10'0 0.0
2017-Nov-10 11:30S 00°04' W 051°10'0 0.0
2017-Nov-10 11:00S 00°04' W 051°10'0 0.0
2017-Nov-10 10:30S 00°04' W 051°10'0 0.0
2017-Nov-10 10:00S 00°04' W 051°10'0 0.0
2017-Nov-10 09:30S 00°04' W 051°10'0 0.0
2017-Nov-10 09:00S 00°04' W 051°10'0 0.0
2017-Nov-10 08:30S 00°04' W 051°10'0 0.0
2017-Nov-10 08:00S 00°04' W 051°10'0 0.0
2017-Nov-10 07:30S 00°04' W 051°10'0 0.0
2017-Nov-10 07:00S 00°04' W 051°10'0 0.0
2017-Nov-10 06:30S 00°04' W 051°10'0 0.0
2017-Nov-10 06:00S 00°04' W 051°10'0 0.0
2017-Nov-10 05:31S 00°04' W 051°10'0 0.0
2017-Nov-10 05:00S 00°04' W 051°10'0 0.0
2017-Nov-10 04:30S 00°04' W 051°10'0 0.0
2017-Nov-10 04:00S 00°04' W 051°10'0 0.0
2017-Nov-10 03:30S 00°04' W 051°10'0 0.0
2017-Nov-10 03:00S 00°04' W 051°10'0 0.0
2017-Nov-10 02:30S 00°04' W 051°10'0 0.0
2017-Nov-10 02:00S 00°04' W 051°10'0 0.0
2017-Nov-10 01:30S 00°04' W 051°10'0 0.0
2017-Nov-10 01:00S 00°04' W 051°10'0 0.0
2017-Nov-10 00:30S 00°04' W 051°10'0 0.0
2017-Nov-10 00:00S 00°04' W 051°10'0 0.0
2017-Nov-09 23:30S 00°04' W 051°10'0 0.0
2017-Nov-09 23:00S 00°04' W 051°10'0 0.0
2017-Nov-09 22:30S 00°04' W 051°10'0 0.0
2017-Nov-09 22:00S 00°04' W 051°10'0 0.0
2017-Nov-09 21:30S 00°04' W 051°10'0 0.0
2017-Nov-09 21:00S 00°04' W 051°10'0 0.0
2017-Nov-09 20:30S 00°04' W 051°10'0 0.0
2017-Nov-09 20:00S 00°04' W 051°10'0 0.0
2017-Nov-09 19:30S 00°04' W 051°10'0 0.0
2017-Nov-09 19:00S 00°04' W 051°10'0 0.0
2017-Nov-09 18:30S 00°04' W 051°10'0 0.0
2017-Nov-09 18:00S 00°04' W 051°10'0 0.0
2017-Nov-09 17:30S 00°04' W 051°10'0 0.0
2017-Nov-09 17:00S 00°04' W 051°10'0 0.0
2017-Nov-09 16:30S 00°04' W 051°10'0 0.0
2017-Nov-09 16:00S 00°04' W 051°10'0 0.0
2017-Nov-08 18:09S 00°04' W 051°10'0 0.0
2017-Nov-08 18:00S 00°04' W 051°10'0 0.0
2017-Nov-08 17:30S 00°04' W 051°10'0 0.0
2017-Nov-08 17:00S 00°04' W 051°10'0 0.0
2017-Nov-08 16:30S 00°04' W 051°10'0 0.0
2017-Nov-08 16:00S 00°04' W 051°10'0 0.0
2017-Nov-08 15:30S 00°04' W 051°10'0 0.0
2017-Nov-08 15:00S 00°04' W 051°10'0 0.0
2017-Nov-08 14:30S 00°04' W 051°10'0 0.0
2017-Nov-08 14:00S 00°04' W 051°10'0 0.0
2017-Nov-08 13:30S 00°04' W 051°10'0 0.0
2017-Nov-08 13:00S 00°04' W 051°10'0 0.0
2017-Nov-08 12:30S 00°04' W 051°10'0 0.0
2017-Nov-08 12:00S 00°04' W 051°10'0 0.0
2017-Nov-08 11:30S 00°04' W 051°10'0 0.0
2017-Nov-08 11:00S 00°04' W 051°10'0 0.0
2017-Nov-08 10:30S 00°04' W 051°10'0 0.0
2017-Nov-08 10:00S 00°04' W 051°10'0 0.0
2017-Nov-08 09:30S 00°04' W 051°10'0 0.0
2017-Nov-08 09:00S 00°04' W 051°10'0 0.0
2017-Nov-08 08:30S 00°04' W 051°10'0 0.0
2017-Nov-08 08:00S 00°04' W 051°10'0 0.0
2017-Nov-08 07:30S 00°04' W 051°10'0 0.0
2017-Nov-08 07:00S 00°04' W 051°10'0 0.0
2017-Nov-08 06:30S 00°04' W 051°10'0 0.0
2017-Nov-08 06:01S 00°04' W 051°10'0 0.0
2017-Nov-08 05:30S 00°04' W 051°10'0 0.0
2017-Nov-08 05:00S 00°04' W 051°10'0 0.0
2017-Nov-08 04:30S 00°04' W 051°10'0 0.0
2017-Nov-08 04:00S 00°04' W 051°10'0 0.0
2017-Nov-08 03:30S 00°04' W 051°10'0 0.0
2017-Nov-08 03:00S 00°04' W 051°10'0 0.0
2017-Nov-08 02:30S 00°04' W 051°10'0 0.0
2017-Nov-08 02:00S 00°04' W 051°10'0 0.0
2017-Nov-08 01:30S 00°04' W 051°10'0 0.0
2017-Nov-08 01:00S 00°04' W 051°10'0 0.0
2017-Nov-08 00:30S 00°04' W 051°10'0 0.0
2017-Nov-08 00:00S 00°04' W 051°10'0 0.0
2017-Nov-07 23:30S 00°04' W 051°10'0 0.0
2017-Nov-07 23:00S 00°04' W 051°10'0 0.0
2017-Nov-07 22:27S 00°04' W 051°10'0 0.0
2017-Nov-07 22:00S 00°04' W 051°10'0 0.0
2017-Nov-07 21:30S 00°04' W 051°10'0 0.0
2017-Nov-07 21:00S 00°04' W 051°10'0 0.0
2017-Nov-07 20:30S 00°04' W 051°10'0 0.0
2017-Nov-07 20:00S 00°04' W 051°10'0 0.0
2017-Nov-07 19:30S 00°04' W 051°10'0 0.0
2017-Nov-07 19:00S 00°04' W 051°10'0 0.0
2017-Nov-07 18:30S 00°04' W 051°10'0 0.0
2017-Nov-07 18:00S 00°04' W 051°10'0 0.0
2017-Nov-07 17:30S 00°04' W 051°10'0 0.0
2017-Nov-07 17:00S 00°04' W 051°10'0 0.0
2017-Nov-07 16:30S 00°04' W 051°10'0 0.0
2017-Nov-07 16:00S 00°04' W 051°10'0 0.0
2017-Nov-07 15:30S 00°04' W 051°10'0 0.0
2017-Nov-07 15:00S 00°04' W 051°10'0 0.0
2017-Nov-07 14:30S 00°04' W 051°10'0 0.0
2017-Nov-07 14:00S 00°04' W 051°10'0 0.0
2017-Nov-07 13:30S 00°04' W 051°10'0 0.0
2017-Nov-07 13:00S 00°04' W 051°10'0 0.0
2017-Nov-07 12:30S 00°04' W 051°10'0 0.0
2017-Nov-07 12:00S 00°04' W 051°10'0 0.0
2017-Nov-07 11:30S 00°04' W 051°10'0 0.0
2017-Nov-07 11:00S 00°04' W 051°10'0 0.0
2017-Nov-07 10:30S 00°04' W 051°10'0 0.0
2017-Nov-07 10:00S 00°04' W 051°10'0 0.0
2017-Nov-07 08:20S 00°04' W 051°10'0 0.0
2017-Nov-07 08:00S 00°04' W 051°10'0 0.0
2017-Nov-07 07:30S 00°04' W 051°10'0 0.0
2017-Nov-07 07:00S 00°04' W 051°10'0 0.0
2017-Nov-07 06:31S 00°04' W 051°10'0 0.0
2017-Nov-07 06:00S 00°04' W 051°10'0 0.0
2017-Nov-07 05:30S 00°04' W 051°10'0 0.0
2017-Nov-07 05:00S 00°04' W 051°10'0 0.0
2017-Nov-07 04:30S 00°04' W 051°10'0 0.0
2017-Nov-07 04:00S 00°04' W 051°10'0 0.0
2017-Nov-07 03:30S 00°04' W 051°10'0 0.0
2017-Nov-07 03:00S 00°04' W 051°10'0 0.0
2017-Nov-07 02:30S 00°04' W 051°10'0 0.0
2017-Nov-07 02:00S 00°04' W 051°10'0 0.0
2017-Nov-07 01:30S 00°04' W 051°10'0 0.0
2017-Nov-07 01:00S 00°04' W 051°10'0 0.0
2017-Nov-07 00:30S 00°04' W 051°10'0 0.0
2017-Nov-07 00:00S 00°04' W 051°10'0 0.0
2017-Nov-06 23:30S 00°04' W 051°10'0 0.0
2017-Nov-06 23:00S 00°04' W 051°10'0 0.0
2017-Nov-06 22:30S 00°04' W 051°10'0 0.0
2017-Nov-06 22:00S 00°04' W 051°10'0 0.0
2017-Nov-06 21:30S 00°04' W 051°10'0 0.0
2017-Nov-06 21:00S 00°04' W 051°10'0 0.0
2017-Nov-06 20:30S 00°04' W 051°10'  

Dump ship's entire track history